Allakaket, Alaska
Current Conditions -  °F | °C
As of 3:53 PM on Monday 20 Oct 2014 (Local Time) from PABT Reporting Station
Broken Clouds Broken Clouds  
Wind Chill: 27°   Ceiling: 9000
Heat Index: 35°   Visibility: 10mi
Dew Point: 19°   Wind: 12mph
Humidity: 52%   Direction: 70°ENE
Pressure: 29.32"   Gusts: 23mph
Location:  66.57°N, 152.65°W
Report Text: PABT 202353Z 07010G20KT 10SM FEW034 SCT060 BKN090 BKN180 02/M07 A2932 RMK AO2 SNE30 SLP940 SHSN DSNT SW-W 60000 4/002 T00171072 10017 20000 55004
Loading
Personal Weather Stations






























Interactive Weather Map
Tropical Storm Tracking
New forecast layout! Learn more

10-Day Weather Forecast

Advertisements
Track Severe Weather on mobile